createdAt,value
2023-02-25T00:01:05.909Z,100918.28
2023-02-25T00:03:32.481Z,100921.44
2023-02-25T00:05:58.809Z,100916.13
2023-02-25T00:08:25.122Z,100917.97
2023-02-25T00:10:59.789Z,100914.81
2023-02-25T00:13:26.929Z,100923.19
2023-02-25T00:15:53.434Z,100919.19
2023-02-25T00:18:19.806Z,100924.19
2023-02-25T00:20:46.445Z,100918.09
2023-02-25T00:23:13.502Z,100927.03
2023-02-25T00:25:39.819Z,100918.34
2023-02-25T00:28:06.337Z,100929.63
2023-02-25T00:30:35.021Z,100931.47
2023-02-25T00:33:02.002Z,100937.50
2023-02-25T00:35:28.638Z,100927.75
2023-02-25T00:37:59.175Z,100923.06
2023-02-25T00:40:30.370Z,100920.44
2023-02-25T00:42:59.387Z,100929.63
2023-02-25T00:45:25.844Z,100933.03
2023-02-25T00:47:52.231Z,100933.81
2023-02-25T00:50:18.589Z,100931.72
2023-02-25T00:52:46.425Z,100936.41
2023-02-25T00:55:12.743Z,100941.94
2023-02-25T00:57:39.345Z,100944.56
2023-02-25T01:00:15.750Z,100950.88
2023-02-25T01:02:45.442Z,100946.41
2023-02-25T01:05:13.846Z,100953.25
2023-02-25T01:07:40.520Z,100953.75
2023-02-25T01:10:07.530Z,100954.28
2023-02-25T01:12:33.874Z,100951.41
2023-02-25T01:15:01.217Z,100954.03
2023-02-25T01:17:27.678Z,100953.25
2023-02-25T01:19:54.007Z,100956.94
2023-02-25T01:22:20.384Z,100954.81
2023-02-25T01:24:46.696Z,100955.88
2023-02-25T01:27:13.005Z,100953.53
2023-02-25T01:29:40.452Z,100956.16
2023-02-25T01:32:09.504Z,100946.94
2023-02-25T01:34:36.005Z,100949.84
2023-02-25T01:37:03.742Z,100953.53
2023-02-25T01:39:32.070Z,100958.03
2023-02-25T01:41:59.518Z,100959.34
2023-02-25T01:44:37.665Z,100964.59
2023-02-25T01:47:04.399Z,100960.41
2023-02-25T01:49:45.818Z,100953.81
2023-02-25T01:52:19.109Z,100953.81
2023-02-25T01:54:47.987Z,100958.28
2023-02-25T01:57:17.043Z,100948.84
2023-02-25T01:59:44.455Z,100945.41
2023-02-25T02:02:19.062Z,100946.47
2023-02-25T02:04:51.121Z,100950.41
2023-02-25T02:07:18.841Z,100948.06
2023-02-25T02:09:58.376Z,100949.13
2023-02-25T02:12:45.861Z,100946.78
2023-02-25T02:15:15.000Z,100941.75
2023-02-25T02:17:52.002Z,100943.63
2023-02-25T02:20:29.535Z,100952.03
2023-02-25T02:23:40.795Z,100948.63
2023-02-25T02:26:29.060Z,100950.97
2023-02-25T02:28:58.312Z,100948.84
2023-02-25T02:31:38.689Z,100947.78
2023-02-25T02:34:27.351Z,100950.97
2023-02-25T02:37:12.675Z,100944.69
2023-02-25T02:39:53.335Z,100952.88
2023-02-25T02:42:48.938Z,100951.84
2023-02-25T02:45:21.355Z,100945.56
2023-02-25T02:48:00.215Z,100939.78
2023-02-25T02:50:56.340Z,100947.16
2023-02-25T02:53:38.437Z,100945.88
2023-02-25T02:56:07.967Z,100949.31
2023-02-25T02:58:38.508Z,100945.63
2023-02-25T03:01:15.406Z,100952.22
2023-02-25T03:03:47.065Z,100953.78
2023-02-25T03:06:22.316Z,100959.31
2023-02-25T03:08:56.005Z,100953.50
2023-02-25T03:11:22.392Z,100955.91
2023-02-25T03:13:50.275Z,100958.78
2023-02-25T03:16:43.563Z,100956.69
2023-02-25T03:19:18.301Z,100964.03
2023-02-25T03:21:52.396Z,100961.38
2023-02-25T03:24:34.418Z,100963.72
2023-02-25T03:27:19.948Z,100968.19
2023-02-25T03:29:46.458Z,100963.44
2023-02-25T03:32:15.961Z,100966.34
2023-02-25T03:34:48.163Z,100960.28
2023-02-25T03:37:21.718Z,100962.34
2023-02-25T03:39:52.985Z,100961.81
2023-02-25T03:42:25.435Z,100961.28
2023-02-25T03:44:57.693Z,100961.28
2023-02-25T03:47:27.043Z,100963.13
2023-02-25T03:50:02.310Z,100968.38
2023-02-25T03:52:29.773Z,100979.66
2023-02-25T03:54:58.532Z,100981.00
2023-02-25T03:57:34.521Z,100978.59
2023-02-25T04:00:00.945Z,100980.19
2023-02-25T04:02:32.789Z,100975.97
2023-02-25T04:04:59.337Z,100980.19
2023-02-25T04:07:25.810Z,100982.28
2023-02-25T04:09:52.116Z,100979.16
2023-02-25T04:12:18.442Z,100988.63
2023-02-25T04:14:44.740Z,100991.00
2023-02-25T04:17:13.003Z,100994.69
2023-02-25T04:19:39.440Z,100992.88
2023-02-25T04:22:07.895Z,101000.78
2023-02-25T04:24:34.302Z,100993.69
2023-02-25T04:27:01.680Z,100998.66
2023-02-25T04:29:29.308Z,100992.13
2023-02-25T04:31:56.641Z,101006.56
2023-02-25T04:34:23.362Z,101007.13
2023-02-25T04:36:50.041Z,101005.00
2023-02-25T04:39:18.113Z,100998.69
2023-02-25T04:41:44.777Z,101010.25
2023-02-25T04:44:11.571Z,101012.09
2023-02-25T04:46:40.151Z,101013.38
2023-02-25T04:49:08.113Z,101010.53
2023-02-25T04:51:37.393Z,101019.69
2023-02-25T04:54:03.944Z,101018.91
2023-02-25T04:56:31.015Z,101019.19
2023-02-25T04:58:58.265Z,101016.03
2023-02-25T05:01:24.655Z,101016.84
2023-02-25T05:03:56.724Z,101015.78
2023-02-25T05:06:24.649Z,101019.97
2023-02-25T05:08:51.115Z,101009.19
2023-02-25T05:11:18.869Z,101014.44
2023-02-25T05:13:45.225Z,101009.19
2023-02-25T05:16:16.407Z,101013.38
2023-02-25T05:18:44.481Z,101004.47
2023-02-25T05:21:12.801Z,101005.25
2023-02-25T05:23:43.784Z,100998.41
2023-02-25T05:26:11.572Z,101010.25
2023-02-25T05:28:38.437Z,101004.97
2023-02-25T05:31:06.482Z,101002.84
2023-02-25T05:33:33.538Z,101017.06
2023-02-25T05:36:00.320Z,101019.16
2023-02-25T05:38:28.026Z,101023.09
2023-02-25T05:40:54.850Z,101018.09
2023-02-25T05:43:21.173Z,101023.38
2023-02-25T05:45:54.977Z,101024.94
2023-02-25T05:48:21.809Z,101015.19
2023-02-25T05:50:50.423Z,101024.38
2023-02-25T05:53:18.378Z,101023.34
2023-02-25T05:55:45.665Z,101025.44
2023-02-25T05:58:12.203Z,101032.25
2023-02-25T06:00:39.363Z,101029.38
2023-02-25T06:03:06.220Z,101030.41
2023-02-25T06:05:32.660Z,101026.47
2023-02-25T06:07:59.488Z,101031.22
2023-02-25T06:10:27.328Z,101047.00
2023-02-25T06:12:53.935Z,101043.56
2023-02-25T06:15:20.271Z,101038.56
2023-02-25T06:17:46.615Z,101034.09
2023-02-25T06:20:16.369Z,101038.59
2023-02-25T06:22:43.224Z,101029.41
2023-02-25T06:25:09.820Z,101032.31
2023-02-25T06:27:36.125Z,101040.72
2023-02-25T06:30:03.222Z,101044.91
2023-02-25T06:32:29.710Z,101059.63
2023-02-25T06:34:56.695Z,101052.78
2023-02-25T06:37:23.021Z,101058.56
2023-02-25T06:39:49.356Z,101060.16
2023-02-25T06:42:15.680Z,101064.59
2023-02-25T06:44:42.017Z,101063.28
2023-02-25T06:47:08.339Z,101071.19
2023-02-25T06:49:34.677Z,101076.66
2023-02-25T06:52:01.267Z,101079.56
2023-02-25T06:54:27.968Z,101070.63
2023-02-25T06:56:54.621Z,101079.56
2023-02-25T06:59:21.553Z,101080.91
2023-02-25T07:01:47.883Z,101079.84
2023-02-25T07:04:16.284Z,101075.38
2023-02-25T07:06:42.648Z,101091.16
2023-02-25T07:09:09.382Z,101096.91
2023-02-25T07:11:36.567Z,101120.59
2023-02-25T07:14:05.120Z,101127.47
2023-02-25T07:16:33.712Z,101125.13
2023-02-25T07:19:02.182Z,101120.66
2023-02-25T07:21:30.813Z,101109.88
2023-02-25T07:23:58.505Z,101123.00
2023-02-25T07:26:28.227Z,101124.84
2023-02-25T07:28:56.920Z,101125.91
2023-02-25T07:31:24.523Z,101125.63
2023-02-25T07:33:52.181Z,101136.94
2023-02-25T07:36:19.040Z,101134.84
2023-02-25T07:38:46.955Z,101128.78
2023-02-25T07:41:15.753Z,101125.63
2023-02-25T07:43:42.258Z,101131.16
2023-02-25T07:46:09.475Z,101131.69
2023-02-25T07:48:36.582Z,101136.94
2023-02-25T07:51:08.720Z,101141.13
2023-02-25T07:53:35.442Z,101141.66
2023-02-25T07:56:02.188Z,101141.13
2023-02-25T07:58:28.625Z,101144.28
2023-02-25T08:00:55.486Z,101148.47
2023-02-25T08:03:21.801Z,101152.16
2023-02-25T08:05:51.732Z,101156.31
2023-02-25T08:08:18.414Z,101157.88
2023-02-25T08:10:44.807Z,101169.44
2023-02-25T08:13:11.124Z,101159.94
2023-02-25T08:15:43.935Z,101162.06
2023-02-25T08:18:10.477Z,101165.72
2023-02-25T08:20:38.338Z,101162.31
2023-02-25T08:23:04.872Z,101155.69
2023-02-25T08:25:31.177Z,101176.75
2023-02-25T08:27:58.145Z,101169.13
2023-02-25T08:30:24.478Z,101178.31
2023-02-25T08:32:51.111Z,101179.38
2023-02-25T08:35:17.477Z,101174.63
2023-02-25T08:37:45.274Z,101175.16
2023-02-25T08:40:13.545Z,101168.03
2023-02-25T08:42:39.883Z,101170.91
2023-02-25T08:45:06.658Z,101168.81
2023-02-25T08:47:33.471Z,101168.25
2023-02-25T08:50:00.634Z,101168.25
2023-02-25T08:52:33.485Z,101189.31
2023-02-25T08:55:01.657Z,101181.41
2023-02-25T08:57:28.591Z,101197.75
2023-02-25T08:59:55.035Z,101203.53
2023-02-25T09:02:21.665Z,101212.47
2023-02-25T09:04:48.395Z,101210.84
2023-02-25T09:07:16.315Z,101212.38
2023-02-25T09:09:43.178Z,101217.59
2023-02-25T09:12:10.658Z,101225.47
2023-02-25T09:14:37.389Z,101226.22
2023-02-25T09:17:05.594Z,101228.81
2023-02-25T09:19:32.918Z,101231.97
2023-02-25T09:21:59.498Z,101240.63
2023-02-25T09:24:27.616Z,101244.78
2023-02-25T09:26:53.968Z,101248.81
2023-02-25T09:29:20.330Z,101243.00
2023-02-25T09:31:47.139Z,101254.19
2023-02-25T09:34:14.315Z,101260.63
2023-02-25T09:36:41.309Z,101256.06
2023-02-25T09:39:10.012Z,101261.84
2023-02-25T09:42:03.277Z,101269.31
2023-02-25T09:44:32.354Z,101262.06
2023-02-25T09:47:06.568Z,101270.28
2023-02-25T09:50:02.804Z,101266.22
2023-02-25T09:52:32.664Z,101279.06
2023-02-25T09:55:06.437Z,101276.75
2023-02-25T09:57:37.791Z,101281.72
2023-02-25T10:00:11.640Z,101283.88
2023-02-25T10:02:49.923Z,101278.75
2023-02-25T10:05:24.385Z,101289.44
2023-02-25T10:08:20.779Z,101288.13
2023-02-25T10:10:56.160Z,101284.88
2023-02-25T10:13:41.754Z,101295.47
2023-02-25T10:16:32.915Z,101299.84
2023-02-25T10:19:11.014Z,101294.50
2023-02-25T10:21:55.790Z,101296.19
2023-02-25T10:24:37.432Z,101305.91
2023-02-25T10:27:33.716Z,101302.97
2023-02-25T10:30:06.504Z,101289.88
2023-02-25T10:32:35.637Z,101320.41
2023-02-25T10:35:14.032Z,101310.84
2023-02-25T10:37:40.371Z,101308.66
2023-02-25T10:40:11.359Z,101315.44
2023-02-25T10:42:38.451Z,101335.28
2023-02-25T10:45:14.525Z,101339.06
2023-02-25T10:47:44.887Z,101329.09
2023-02-25T10:50:16.313Z,101331.47
2023-02-25T10:53:25.078Z,101329.91
2023-02-25T10:55:54.410Z,101328.28
2023-02-25T10:58:35.626Z,101331.56
2023-02-25T11:01:13.534Z,101336.44
2023-02-25T11:03:46.861Z,101337.34
2023-02-25T11:06:17.555Z,101326.00
2023-02-25T11:08:44.537Z,101344.50
2023-02-25T11:11:19.751Z,101359.06
2023-02-25T11:13:55.938Z,101366.16
2023-02-25T11:16:22.534Z,101379.44
2023-02-25T11:19:01.214Z,101399.63
2023-02-25T11:21:34.719Z,101399.25
2023-02-25T11:24:08.723Z,101397.72
2023-02-25T11:26:37.913Z,101401.78
2023-02-25T11:29:14.736Z,101396.22
2023-02-25T11:31:42.933Z,101392.59
2023-02-25T11:34:22.582Z,101392.75
2023-02-25T11:36:50.872Z,101390.31
2023-02-25T11:39:23.573Z,101390.22
2023-02-25T11:41:52.857Z,101391.31
2023-02-25T11:44:28.732Z,101382.91
2023-02-25T11:47:14.235Z,101382.81
2023-02-25T11:50:11.184Z,101382.50
2023-02-25T11:52:56.022Z,101373.53
2023-02-25T11:55:47.479Z,101380.28
2023-02-25T11:58:37.022Z,101371.72
2023-02-25T12:01:15.014Z,101375.38
2023-02-25T12:04:02.250Z,101386.03
2023-02-25T12:06:44.810Z,101381.97
2023-02-25T12:09:28.311Z,101375.75
2023-02-25T12:12:24.326Z,101370.91
2023-02-25T12:15:10.576Z,101368.19
2023-02-25T12:18:10.712Z,101385.63
2023-02-25T12:20:58.779Z,101381.56
2023-02-25T12:23:39.995Z,101380.41
2023-02-25T12:26:15.694Z,101383.56
2023-02-25T12:29:07.306Z,101388.41
2023-02-25T12:31:47.850Z,101386.06
2023-02-25T12:34:22.593Z,101379.31
2023-02-25T12:37:17.254Z,101382.03
2023-02-25T12:39:52.351Z,101383.34
2023-02-25T12:42:40.999Z,101379.16
2023-02-25T12:45:25.519Z,101379.22
2023-02-25T12:47:57.895Z,101387.63
2023-02-25T12:50:42.444Z,101395.09
2023-02-25T12:53:14.866Z,101390.72
2023-02-25T12:55:47.378Z,101410.50
2023-02-25T12:58:39.513Z,101409.72
2023-02-25T13:01:28.302Z,101415.84
2023-02-25T13:03:57.871Z,101409.56
2023-02-25T13:06:50.374Z,101410.25
2023-02-25T13:09:46.376Z,101410.28
2023-02-25T13:12:40.697Z,101422.53
2023-02-25T13:15:25.208Z,101425.06
2023-02-25T13:18:25.252Z,101431.84
2023-02-25T13:21:11.911Z,101435.19
2023-02-25T13:24:09.122Z,101432.94
2023-02-25T13:27:19.623Z,101427.28
2023-02-25T13:30:05.406Z,101421.88
2023-02-25T13:32:59.125Z,101431.06
2023-02-25T13:35:32.172Z,101442.31
2023-02-25T13:38:02.008Z,101436.34
2023-02-25T13:40:50.802Z,101439.44
2023-02-25T13:43:34.745Z,101439.19
2023-02-25T13:46:45.836Z,101439.69
2023-02-25T13:49:57.558Z,101444.34
2023-02-25T13:52:27.719Z,101448.63
2023-02-25T13:55:08.362Z,101448.31
2023-02-25T13:58:13.640Z,101462.59
2023-02-25T14:01:04.353Z,101473.25
2023-02-25T14:04:01.692Z,101478.09
2023-02-25T14:06:47.290Z,101462.41
2023-02-25T14:09:29.768Z,101460.56
2023-02-25T14:12:44.089Z,101468.66
2023-02-25T14:15:35.576Z,101471.19
2023-02-25T14:18:31.245Z,101461.13
2023-02-25T14:21:19.795Z,101468.72
2023-02-25T14:23:55.309Z,101468.91
2023-02-25T14:26:43.535Z,101472.75
2023-02-25T14:29:19.205Z,101489.03
2023-02-25T14:32:10.224Z,101488.03
2023-02-25T14:35:07.454Z,101494.72
2023-02-25T14:37:42.979Z,101508.22
2023-02-25T14:40:43.522Z,101518.03
2023-02-25T14:43:21.598Z,101522.53
2023-02-25T14:46:19.771Z,101519.22
2023-02-25T14:48:58.983Z,101529.81
2023-02-25T14:51:53.183Z,101529.91
2023-02-25T14:54:56.052Z,101532.78
2023-02-25T14:57:38.877Z,101534.59
2023-02-25T15:00:39.773Z,101535.69
2023-02-25T15:03:22.387Z,101539.97
2023-02-25T15:06:00.850Z,101547.06
2023-02-25T15:08:54.094Z,101552.19
2023-02-25T15:11:39.111Z,101559.09
2023-02-25T15:14:24.533Z,101555.47
2023-02-25T15:17:18.818Z,101563.50
2023-02-25T15:20:22.602Z,101564.28
2023-02-25T15:23:13.405Z,101578.31
2023-02-25T15:25:53.820Z,101575.16
2023-02-25T15:28:29.240Z,101576.47
2023-02-25T15:30:58.910Z,101581.31
2023-02-25T15:33:45.358Z,101577.66
2023-02-25T15:36:14.732Z,101584.84
2023-02-25T15:38:44.531Z,101590.66
2023-02-25T15:41:29.294Z,101590.13
2023-02-25T15:44:00.043Z,101593.78
2023-02-25T15:46:35.483Z,101597.19
2023-02-25T15:49:04.560Z,101609.13
2023-02-25T15:51:57.685Z,101617.38
2023-02-25T15:54:29.835Z,101625.84
2023-02-25T15:57:09.359Z,101624.00
2023-02-25T15:59:44.752Z,101624.78
2023-02-25T16:02:26.342Z,101624.78
2023-02-25T16:05:05.534Z,101631.66
2023-02-25T16:07:38.376Z,101631.41
2023-02-25T16:10:31.884Z,101645.41
2023-02-25T16:13:00.875Z,101644.63
2023-02-25T16:15:41.941Z,101655.69
2023-02-25T16:18:32.858Z,101655.72
2023-02-25T16:21:06.051Z,101666.00
2023-02-25T16:23:34.252Z,101654.13
2023-02-25T16:26:07.977Z,101668.88
2023-02-25T16:29:07.664Z,101665.72
2023-02-25T16:31:52.851Z,101672.53
2023-02-25T16:34:22.972Z,101673.59
2023-02-25T16:37:19.973Z,101675.69
2023-02-25T16:39:47.209Z,101688.34
2023-02-25T16:42:16.883Z,101685.69
2023-02-25T16:44:56.103Z,101688.28
2023-02-25T16:47:29.586Z,101699.31
2023-02-25T16:49:58.174Z,101696.94
2023-02-25T16:52:30.869Z,101702.44
2023-02-25T16:55:00.628Z,101707.16
2023-02-25T16:57:27.673Z,101702.34
2023-02-25T17:00:13.162Z,101716.56
2023-02-25T17:02:47.578Z,101713.09
2023-02-25T17:05:28.977Z,101714.66
2023-02-25T17:07:59.531Z,101713.03
2023-02-25T17:10:29.807Z,101723.53
2023-02-25T17:12:57.066Z,101728.75
2023-02-25T17:15:27.302Z,101734.81
2023-02-25T17:18:06.995Z,101734.47
2023-02-25T17:20:34.540Z,101742.06
2023-02-25T17:23:08.354Z,101742.03
2023-02-25T17:25:43.061Z,101744.63
2023-02-25T17:28:20.843Z,101750.38
2023-02-25T17:30:47.364Z,101749.81
2023-02-25T17:33:19.591Z,101755.56
2023-02-25T17:35:47.864Z,101753.13
2023-02-25T17:38:17.950Z,101762.03
2023-02-25T17:40:45.155Z,101756.41
2023-02-25T17:43:18.075Z,101761.31
2023-02-25T17:45:50.198Z,101755.75
2023-02-25T17:48:29.740Z,101762.81
2023-02-25T17:51:06.101Z,101763.78
2023-02-25T17:53:37.186Z,101771.88
2023-02-25T17:56:18.383Z,101770.22
2023-02-25T17:58:45.157Z,101783.06
2023-02-25T18:01:24.589Z,101776.94
2023-02-25T18:03:52.983Z,101782.38
2023-02-25T18:06:39.212Z,101791.00
2023-02-25T18:09:05.847Z,101800.66
2023-02-25T18:11:38.444Z,101791.38
2023-02-25T18:14:37.634Z,101799.97
2023-02-25T18:17:40.992Z,101798.56
2023-02-25T18:20:25.693Z,101811.63
2023-02-25T18:22:53.499Z,101813.13
2023-02-25T18:25:39.773Z,101820.13
2023-02-25T18:28:12.462Z,101816.63
2023-02-25T18:30:38.819Z,101814.97
2023-02-25T18:33:05.288Z,101819.09
2023-02-25T18:35:32.946Z,101820.84
2023-02-25T18:38:01.072Z,101831.06
2023-02-25T18:40:36.601Z,101836.75
2023-02-25T18:43:03.816Z,101832.00
2023-02-25T18:45:32.395Z,101836.13
2023-02-25T18:48:00.240Z,101836.84
2023-02-25T18:50:30.318Z,101838.56
2023-02-25T18:52:56.630Z,101841.66
2023-02-25T18:55:25.804Z,101849.47
2023-02-25T18:57:52.271Z,101848.34
2023-02-25T19:00:21.246Z,101854.53
2023-02-25T19:02:54.220Z,101853.41
2023-02-25T19:05:22.893Z,101845.78
2023-02-25T19:07:49.951Z,101850.69
2023-02-25T19:10:23.404Z,101861.97
2023-02-25T19:12:51.379Z,101864.84
2023-02-25T19:15:21.187Z,101863.25
2023-02-25T19:17:48.730Z,101864.28
2023-02-25T19:20:17.410Z,101867.34
2023-02-25T19:22:49.265Z,101866.47
2023-02-25T19:25:31.272Z,101866.38
2023-02-25T19:27:58.245Z,101870.25
2023-02-25T19:30:30.869Z,101868.91
2023-02-25T19:33:03.519Z,101867.75
2023-02-25T19:35:32.708Z,101873.47
2023-02-25T19:37:59.013Z,101874.72
2023-02-25T19:40:25.479Z,101875.19
2023-02-25T19:42:52.521Z,101876.25
2023-02-25T19:45:21.133Z,101871.19
2023-02-25T19:47:48.693Z,101874.06
2023-02-25T19:50:17.797Z,101876.38
2023-02-25T19:55:11.741Z,101882.44
2023-02-25T19:57:39.221Z,101884.16
2023-02-25T20:00:08.933Z,101889.84
2023-02-25T20:02:35.371Z,101888.13
2023-02-25T20:05:01.813Z,101894.28
2023-02-25T20:07:28.402Z,101904.19
2023-02-25T20:09:54.884Z,101896.25
2023-02-25T20:12:21.218Z,101896.31
2023-02-25T20:14:47.596Z,101900.88
2023-02-25T20:17:13.936Z,101912.03
2023-02-25T20:19:40.501Z,101902.81
2023-02-25T20:22:07.138Z,101902.25
2023-02-25T20:24:34.175Z,101900.31
2023-02-25T20:27:02.428Z,101910.44
2023-02-25T20:29:29.228Z,101912.69
2023-02-25T20:31:56.935Z,101909.41
2023-02-25T20:34:26.193Z,101915.53
2023-02-25T20:37:03.647Z,101915.97
2023-02-25T20:39:39.189Z,101918.03
2023-02-25T20:42:10.553Z,101917.00
2023-02-25T20:44:37.753Z,101919.28
2023-02-25T20:47:05.176Z,101917.88
2023-02-25T20:49:32.731Z,101929.38
2023-02-25T20:51:59.475Z,101929.81
2023-02-25T20:54:25.806Z,101937.09
2023-02-25T20:56:52.148Z,101933.31
2023-02-25T20:59:18.842Z,101940.84
2023-02-25T21:01:45.650Z,101934.69
2023-02-25T21:04:12.337Z,101940.13
2023-02-25T21:06:39.215Z,101944.78
2023-02-25T21:09:06.853Z,101944.41
2023-02-25T21:11:33.699Z,101952.25
2023-02-25T21:14:00.011Z,101956.91
2023-02-25T21:16:26.631Z,101953.16
2023-02-25T21:18:53.497Z,101962.47
2023-02-25T21:21:21.471Z,101961.06
2023-02-25T21:23:53.989Z,101964.50
2023-02-25T21:26:20.749Z,101962.09
2023-02-25T21:28:47.166Z,101963.91
2023-02-25T21:31:15.672Z,101965.38
2023-02-25T21:33:42.470Z,101966.03
2023-02-25T21:36:10.199Z,101962.03
2023-02-25T21:38:37.523Z,101965.09
2023-02-25T21:41:09.941Z,101970.75
2023-02-25T21:43:37.585Z,101974.97
2023-02-25T21:46:05.740Z,101975.19
2023-02-25T21:48:32.972Z,101974.59
2023-02-25T21:50:59.826Z,101980.50
2023-02-25T21:53:27.566Z,101979.34
2023-02-25T21:55:55.378Z,101989.78
2023-02-25T21:58:22.770Z,101986.81
2023-02-25T22:00:49.679Z,101997.47
2023-02-25T22:03:16.423Z,102002.72
2023-02-25T22:05:46.686Z,102007.13
2023-02-25T22:08:14.034Z,102005.97
2023-02-25T22:10:40.851Z,102015.84
2023-02-25T22:13:08.334Z,102015.25
2023-02-25T22:15:35.006Z,102016.47
2023-02-25T22:18:05.327Z,102024.75
2023-02-25T22:20:31.945Z,102023.16
2023-02-25T22:22:58.369Z,102026.22
2023-02-25T22:25:24.806Z,102025.59
2023-02-25T22:27:51.979Z,102025.25
2023-02-25T22:30:18.614Z,102030.47
2023-02-25T22:32:45.059Z,102029.06
2023-02-25T22:35:11.391Z,102029.53
2023-02-25T22:37:37.745Z,102035.16
2023-02-25T22:40:04.421Z,102030.72
2023-02-25T22:42:30.753Z,102030.38
2023-02-25T22:44:57.045Z,102033.00
2023-02-25T22:47:23.370Z,102031.75
2023-02-25T22:49:49.718Z,102030.72
2023-02-25T22:52:16.086Z,102030.53
2023-02-25T22:54:42.491Z,102033.72
2023-02-25T22:57:09.240Z,102027.06
2023-02-25T22:59:35.554Z,102031.28
2023-02-25T23:02:02.725Z,102032.88
2023-02-25T23:04:29.102Z,102036.34
2023-02-25T23:06:55.679Z,102037.94
2023-02-25T23:09:22.038Z,102033.28
2023-02-25T23:11:48.373Z,102031.44
2023-02-25T23:14:14.917Z,102035.00
2023-02-25T23:16:43.760Z,102036.75
2023-02-25T23:19:14.969Z,102040.09
2023-02-25T23:21:41.742Z,102048.09
2023-02-25T23:24:08.773Z,102042.22
2023-02-25T23:26:40.377Z,102043.16
2023-02-25T23:29:08.771Z,102052.38
2023-02-25T23:31:38.302Z,102063.78
2023-02-25T23:34:08.894Z,102061.09
2023-02-25T23:36:36.886Z,102063.84
2023-02-25T23:39:05.390Z,102055.59
2023-02-25T23:41:34.031Z,102062.41
2023-02-25T23:44:01.593Z,102069.22
2023-02-25T23:46:30.166Z,102066.19
2023-02-25T23:49:05.661Z,102059.72
2023-02-25T23:51:32.161Z,102061.59
2023-02-25T23:54:00.865Z,102070.84
2023-02-25T23:56:29.615Z,102072.84
2023-02-25T23:58:56.691Z,102073.31
